sensor_id;sensor_type;location;lat;lon;timestamp;pressure;altitude;pressure_sealevel;temperature;humidity
9289;BME280;4683;50.864;12.086;2022-09-09T00:02:15;98562.84;;;14.96;100.00
9289;BME280;4683;50.864;12.086;2022-09-09T00:04:57;98566.94;;;14.99;100.00
9289;BME280;4683;50.864;12.086;2022-09-09T00:07:40;98566.25;;;15.04;100.00
9289;BME280;4683;50.864;12.086;2022-09-09T00:10:20;98569.06;;;14.90;100.00
9289;BME280;4683;50.864;12.086;2022-09-09T00:12:59;98566.69;;;15.01;100.00
9289;BME280;4683;50.864;12.086;2022-09-09T00:15:36;98565.13;;;15.11;100.00
9289;BME280;4683;50.864;12.086;2022-09-09T00:18:18;98569.78;;;15.16;100.00
9289;BME280;4683;50.864;12.086;2022-09-09T00:20:58;98573.63;;;15.20;100.00
9289;BME280;4683;50.864;12.086;2022-09-09T00:23:38;98574.00;;;15.23;100.00
9289;BME280;4683;50.864;12.086;2022-09-09T00:26:16;98577.91;;;15.21;100.00
9289;BME280;4683;50.864;12.086;2022-09-09T00:28:59;98567.13;;;15.16;100.00
9289;BME280;4683;50.864;12.086;2022-09-09T00:31:33;98570.00;;;15.14;100.00
9289;BME280;4683;50.864;12.086;2022-09-09T00:34:14;98569.25;;;15.07;100.00
9289;BME280;4683;50.864;12.086;2022-09-09T00:36:43;98566.84;;;15.06;100.00
9289;BME280;4683;50.864;12.086;2022-09-09T00:39:23;98558.34;;;14.97;100.00
9289;BME280;4683;50.864;12.086;2022-09-09T00:42:13;98563.38;;;14.87;100.00
9289;BME280;4683;50.864;12.086;2022-09-09T00:44:58;98564.41;;;14.86;100.00
9289;BME280;4683;50.864;12.086;2022-09-09T00:47:43;98562.94;;;14.90;100.00
9289;BME280;4683;50.864;12.086;2022-09-09T00:50:44;98563.56;;;14.67;100.00
9289;BME280;4683;50.864;12.086;2022-09-09T00:53:39;98554.19;;;14.39;100.00
9289;BME280;4683;50.864;12.086;2022-09-09T00:56:14;98540.75;;;14.34;100.00
9289;BME280;4683;50.864;12.086;2022-09-09T00:58:47;98535.44;;;14.34;100.00
9289;BME280;4683;50.864;12.086;2022-09-09T01:01:21;98540.91;;;14.39;100.00
9289;BME280;4683;50.864;12.086;2022-09-09T01:03:56;98538.44;;;14.44;100.00
9289;BME280;4683;50.864;12.086;2022-09-09T01:06:31;98539.91;;;14.40;100.00
9289;BME280;4683;50.864;12.086;2022-09-09T01:09:24;98535.34;;;14.47;100.00
9289;BME280;4683;50.864;12.086;2022-09-09T01:12:01;98541.88;;;14.70;100.00
9289;BME280;4683;50.864;12.086;2022-09-09T01:14:41;98543.59;;;14.83;100.00
9289;BME280;4683;50.864;12.086;2022-09-09T01:17:19;98549.81;;;14.95;100.00
9289;BME280;4683;50.864;12.086;2022-09-09T01:20:05;98558.34;;;14.97;100.00
9289;BME280;4683;50.864;12.086;2022-09-09T01:22:47;98557.13;;;15.00;100.00
9289;BME280;4683;50.864;12.086;2022-09-09T01:26:14;98559.00;;;14.92;100.00
9289;BME280;4683;50.864;12.086;2022-09-09T01:28:46;98558.88;;;15.06;100.00
9289;BME280;4683;50.864;12.086;2022-09-09T01:31:21;98559.91;;;15.05;100.00
9289;BME280;4683;50.864;12.086;2022-09-09T01:33:51;98560.63;;;14.93;100.00
9289;BME280;4683;50.864;12.086;2022-09-09T01:36:26;98550.00;;;14.75;100.00
9289;BME280;4683;50.864;12.086;2022-09-09T01:39:00;98543.97;;;14.86;100.00
9289;BME280;4683;50.864;12.086;2022-09-09T01:41:33;98544.50;;;14.95;100.00
9289;BME280;4683;50.864;12.086;2022-09-09T01:44:08;98554.22;;;15.01;100.00
9289;BME280;4683;50.864;12.086;2022-09-09T01:46:38;98553.84;;;14.97;100.00
9289;BME280;4683;50.864;12.086;2022-09-09T01:49:08;98549.81;;;14.95;100.00
9289;BME280;4683;50.864;12.086;2022-09-09T01:51:39;98548.53;;;14.97;100.00
9289;BME280;4683;50.864;12.086;2022-09-09T01:54:12;98555.47;;;14.98;100.00
9289;BME280;4683;50.864;12.086;2022-09-09T01:56:53;98550.47;;;14.90;100.00
9289;BME280;4683;50.864;12.086;2022-09-09T01:59:42;98548.53;;;14.79;100.00
9289;BME280;4683;50.864;12.086;2022-09-09T02:02:18;98550.16;;;14.80;100.00
9289;BME280;4683;50.864;12.086;2022-09-09T02:04:58;98554.31;;;14.76;100.00
9289;BME280;4683;50.864;12.086;2022-09-09T02:07:41;98550.22;;;14.74;100.00
9289;BME280;4683;50.864;12.086;2022-09-09T02:10:14;98552.47;;;14.77;100.00
9289;BME280;4683;50.864;12.086;2022-09-09T02:12:48;98557.09;;;14.81;100.00
9289;BME280;4683;50.864;12.086;2022-09-09T02:15:23;98555.63;;;14.85;100.00
9289;BME280;4683;50.864;12.086;2022-09-09T02:17:57;98565.59;;;14.90;100.00
9289;BME280;4683;50.864;12.086;2022-09-09T02:20:27;98563.28;;;14.93;100.00
9289;BME280;4683;50.864;12.086;2022-09-09T02:23:02;98561.81;;;14.97;100.00
9289;BME280;4683;50.864;12.086;2022-09-09T02:25:33;98566.09;;;14.98;100.00
9289;BME280;4683;50.864;12.086;2022-09-09T02:28:06;98563.00;;;14.83;100.00
9289;BME280;4683;50.864;12.086;2022-09-09T02:30:38;98571.56;;;14.85;100.00
9289;BME280;4683;50.864;12.086;2022-09-09T02:33:13;98567.06;;;14.86;100.00
9289;BME280;4683;50.864;12.086;2022-09-09T02:35:42;98565.78;;;14.88;100.00
9289;BME280;4683;50.864;12.086;2022-09-09T02:38:16;98568.91;;;14.85;100.00
9289;BME280;4683;50.864;12.086;2022-09-09T02:40:46;98572.38;;;14.86;100.00
9289;BME280;4683;50.864;12.086;2022-09-09T02:43:16;98567.88;;;14.86;100.00
9289;BME280;4683;50.864;12.086;2022-09-09T02:45:59;98569.13;;;14.84;100.00
9289;BME280;4683;50.864;12.086;2022-09-09T02:48:38;98576.28;;;14.83;100.00
9289;BME280;4683;50.864;12.086;2022-09-09T02:51:17;98572.00;;;14.82;100.00
9289;BME280;4683;50.864;12.086;2022-09-09T02:53:54;98576.69;;;14.80;100.00
9289;BME280;4683;50.864;12.086;2022-09-09T02:56:29;98569.78;;;14.79;100.00
9289;BME280;4683;50.864;12.086;2022-09-09T02:59:03;98563.28;;;14.75;100.00
9289;BME280;4683;50.864;12.086;2022-09-09T03:01:33;98569.63;;;14.74;100.00
9289;BME280;4683;50.864;12.086;2022-09-09T03:04:03;98575.75;;;14.75;100.00
9289;BME280;4683;50.864;12.086;2022-09-09T03:06:32;98561.88;;;14.73;100.00
9289;BME280;4683;50.864;12.086;2022-09-09T03:09:03;98564.31;;;14.74;100.00
9289;BME280;4683;50.864;12.086;2022-09-09T03:11:31;98553.13;;;14.72;100.00
9289;BME280;4683;50.864;12.086;2022-09-09T03:14:02;98562.69;;;14.73;100.00
9289;BME280;4683;50.864;12.086;2022-09-09T03:16:30;98568.44;;;14.70;100.00
9289;BME280;4683;50.864;12.086;2022-09-09T03:19:00;98568.88;;;14.67;100.00
9289;BME280;4683;50.864;12.086;2022-09-09T03:21:36;98568.66;;;14.68;100.00
9289;BME280;4683;50.864;12.086;2022-09-09T03:24:08;98569.63;;;14.74;100.00
9289;BME280;4683;50.864;12.086;2022-09-09T03:26:36;98572.28;;;14.74;100.00
9289;BME280;4683;50.864;12.086;2022-09-09T03:29:27;98578.81;;;14.71;100.00
9289;BME280;4683;50.864;12.086;2022-09-09T03:31:55;98579.06;;;14.70;100.00
9289;BME280;4683;50.864;12.086;2022-09-09T03:34:37;98570.28;;;14.69;100.00
9289;BME280;4683;50.864;12.086;2022-09-09T03:37:13;98570.06;;;14.71;100.00
9289;BME280;4683;50.864;12.086;2022-09-09T03:39:41;98566.75;;;14.76;100.00
9289;BME280;4683;50.864;12.086;2022-09-09T03:42:17;98569.19;;;14.77;100.00
9289;BME280;4683;50.864;12.086;2022-09-09T03:44:48;98570.38;;;14.81;100.00
9289;BME280;4683;50.864;12.086;2022-09-09T03:47:23;98565.66;;;14.83;100.00
9289;BME280;4683;50.864;12.086;2022-09-09T03:49:53;98566.59;;;14.89;100.00
9289;BME280;4683;50.864;12.086;2022-09-09T03:52:22;98566.19;;;14.92;100.00
9289;BME280;4683;50.864;12.086;2022-09-09T03:54:54;98566.56;;;14.95;100.00
9289;BME280;4683;50.864;12.086;2022-09-09T03:57:23;98568.75;;;14.98;100.00
9289;BME280;4683;50.864;12.086;2022-09-09T03:59:59;98570.16;;;15.01;100.00
9289;BME280;4683;50.864;12.086;2022-09-09T04:02:34;98570.53;;;15.05;100.00
9289;BME280;4683;50.864;12.086;2022-09-09T04:05:10;98560.94;;;15.04;100.00
9289;BME280;4683;50.864;12.086;2022-09-09T04:07:39;98565.22;;;15.05;100.00
9289;BME280;4683;50.864;12.086;2022-09-09T04:10:12;98573.56;;;15.08;100.00
9289;BME280;4683;50.864;12.086;2022-09-09T04:12:43;98580.88;;;15.13;100.00
9289;BME280;4683;50.864;12.086;2022-09-09T04:15:15;98576.13;;;15.15;100.00
9289;BME280;4683;50.864;12.086;2022-09-09T04:17:47;98567.13;;;15.16;100.00
9289;BME280;4683;50.864;12.086;2022-09-09T04:20:16;98569.22;;;15.14;100.00
9289;BME280;4683;50.864;12.086;2022-09-09T04:22:50;98574.94;;;15.11;100.00
9289;BME280;4683;50.864;12.086;2022-09-09T04:25:18;98571.72;;;15.09;100.00
9289;BME280;4683;50.864;12.086;2022-09-09T04:27:54;98572.16;;;15.06;100.00
9289;BME280;4683;50.864;12.086;2022-09-09T04:30:25;98573.56;;;15.08;100.00
9289;BME280;4683;50.864;12.086;2022-09-09T04:33:15;98586.00;;;15.08;100.00
9289;BME280;4683;50.864;12.086;2022-09-09T04:35:46;98583.53;;;15.13;100.00
9289;BME280;4683;50.864;12.086;2022-09-09T04:38:34;98576.72;;;15.17;100.00
9289;BME280;4683;50.864;12.086;2022-09-09T04:41:04;98578.94;;;15.20;100.00
9289;BME280;4683;50.864;12.086;2022-09-09T04:43:40;98587.94;;;15.19;100.00
9289;BME280;4683;50.864;12.086;2022-09-09T04:46:16;98577.47;;;15.24;100.00
9289;BME280;4683;50.864;12.086;2022-09-09T04:48:44;98580.72;;;15.26;100.00
9289;BME280;4683;50.864;12.086;2022-09-09T04:51:15;98581.31;;;15.28;100.00
9289;BME280;4683;50.864;12.086;2022-09-09T04:53:48;98590.69;;;15.31;100.00
9289;BME280;4683;50.864;12.086;2022-09-09T04:56:23;98581.22;;;15.35;100.00
9289;BME280;4683;50.864;12.086;2022-09-09T04:58:56;98583.66;;;15.36;100.00
9289;BME280;4683;50.864;12.086;2022-09-09T05:01:38;98584.91;;;15.34;100.00
9289;BME280;4683;50.864;12.086;2022-09-09T05:04:07;98580.69;;;15.44;100.00
9289;BME280;4683;50.864;12.086;2022-09-09T05:06:36;98580.59;;;15.51;100.00
9289;BME280;4683;50.864;12.086;2022-09-09T05:09:08;98588.47;;;15.58;100.00
9289;BME280;4683;50.864;12.086;2022-09-09T05:11:41;98587.41;;;15.65;100.00
9289;BME280;4683;50.864;12.086;2022-09-09T05:14:12;98588.72;;;15.75;100.00
9289;BME280;4683;50.864;12.086;2022-09-09T05:16:47;98586.78;;;15.82;100.00
9289;BME280;4683;50.864;12.086;2022-09-09T05:19:36;98593.59;;;15.89;100.00
9289;BME280;4683;50.864;12.086;2022-09-09T05:22:08;98600.16;;;16.05;100.00
9289;BME280;4683;50.864;12.086;2022-09-09T05:25:03;98608.03;;;16.12;100.00
9289;BME280;4683;50.864;12.086;2022-09-09T05:27:42;98604.91;;;16.15;100.00
9289;BME280;4683;50.864;12.086;2022-09-09T05:30:13;98610.34;;;16.08;100.00
9289;BME280;4683;50.864;12.086;2022-09-09T05:32:45;98605.78;;;15.97;100.00
9289;BME280;4683;50.864;12.086;2022-09-09T05:35:22;98596.94;;;16.15;100.00
9289;BME280;4683;50.864;12.086;2022-09-09T05:38:03;98606.56;;;16.28;100.00
9289;BME280;4683;50.864;12.086;2022-09-09T05:40:35;98610.97;;;16.34;100.00
9289;BME280;4683;50.864;12.086;2022-09-09T05:43:07;98619.06;;;16.27;100.00
9289;BME280;4683;50.864;12.086;2022-09-09T05:45:42;98625.28;;;16.21;100.00
9289;BME280;4683;50.864;12.086;2022-09-09T05:48:14;98626.81;;;16.17;100.00
9289;BME280;4683;50.864;12.086;2022-09-09T05:50:55;98626.13;;;16.21;100.00
9289;BME280;4683;50.864;12.086;2022-09-09T05:53:45;98630.59;;;16.21;100.00
9289;BME280;4683;50.864;12.086;2022-09-09T05:57:03;98625.00;;;16.41;100.00
9289;BME280;4683;50.864;12.086;2022-09-09T06:00:26;98628.03;;;16.68;100.00
9289;BME280;4683;50.864;12.086;2022-09-09T06:03:13;98637.78;;;16.74;100.00
9289;BME280;4683;50.864;12.086;2022-09-09T06:06:03;98638.50;;;16.81;100.00
9289;BME280;4683;50.864;12.086;2022-09-09T06:08:55;98633.84;;;16.88;100.00
9289;BME280;4683;50.864;12.086;2022-09-09T06:11:57;98642.06;;;16.98;100.00
9289;BME280;4683;50.864;12.086;2022-09-09T06:14:44;98642.06;;;17.10;100.00
9289;BME280;4683;50.864;12.086;2022-09-09T06:17:35;98650.06;;;17.22;100.00
9289;BME280;4683;50.864;12.086;2022-09-09T06:20:28;98654.47;;;17.28;100.00
9289;BME280;4683;50.864;12.086;2022-09-09T06:23:10;98659.78;;;17.28;100.00
9289;BME280;4683;50.864;12.086;2022-09-09T06:25:41;98655.63;;;17.32;100.00
9289;BME280;4683;50.864;12.086;2022-09-09T06:28:32;98651.44;;;17.36;100.00
9289;BME280;4683;50.864;12.086;2022-09-09T06:31:08;98653.63;;;17.39;100.00
9289;BME280;4683;50.864;12.086;2022-09-09T06:33:46;98661.16;;;17.42;100.00
9289;BME280;4683;50.864;12.086;2022-09-09T06:36:26;98664.72;;;17.48;100.00
9289;BME280;4683;50.864;12.086;2022-09-09T06:39:18;98670.31;;;17.58;100.00
9289;BME280;4683;50.864;12.086;2022-09-09T06:42:14;98662.41;;;17.63;100.00
9289;BME280;4683;50.864;12.086;2022-09-09T06:45:10;98675.03;;;17.68;100.00
9289;BME280;4683;50.864;12.086;2022-09-09T06:47:47;98674.09;;;17.74;100.00
9289;BME280;4683;50.864;12.086;2022-09-09T06:50:37;98673.31;;;17.73;100.00
9289;BME280;4683;50.864;12.086;2022-09-09T06:53:28;98680.03;;;17.76;100.00
9289;BME280;4683;50.864;12.086;2022-09-09T06:56:19;98680.47;;;17.73;100.00
9289;BME280;4683;50.864;12.086;2022-09-09T06:59:13;98677.72;;;17.56;100.00
9289;BME280;4683;50.864;12.086;2022-09-09T07:02:03;98666.44;;;17.66;100.00
9289;BME280;4683;50.864;12.086;2022-09-09T07:04:33;98680.31;;;17.91;100.00
9289;BME280;4683;50.864;12.086;2022-09-09T07:07:01;98681.53;;;18.12;100.00
9289;BME280;4683;50.864;12.086;2022-09-09T07:09:53;98681.00;;;18.27;100.00
9289;BME280;4683;50.864;12.086;2022-09-09T07:12:42;98680.28;;;18.48;100.00
9289;BME280;4683;50.864;12.086;2022-09-09T07:15:16;98682.16;;;18.65;100.00
9289;BME280;4683;50.864;12.086;2022-09-09T07:18:07;98678.72;;;18.81;100.00
9289;BME280;4683;50.864;12.086;2022-09-09T07:20:38;98681.69;;;19.01;100.00
9289;BME280;4683;50.864;12.086;2022-09-09T07:23:39;98678.00;;;19.24;100.00
9289;BME280;4683;50.864;12.086;2022-09-09T07:26:16;98688.69;;;19.41;100.00
9289;BME280;4683;50.864;12.086;2022-09-09T07:28:49;98697.16;;;19.55;100.00
9289;BME280;4683;50.864;12.086;2022-09-09T07:31:20;98699.09;;;19.60;100.00
9289;BME280;4683;50.864;12.086;2022-09-09T07:33:49;98694.31;;;19.62;100.00
9289;BME280;4683;50.864;12.086;2022-09-09T07:36:20;98703.53;;;19.71;100.00
9289;BME280;4683;50.864;12.086;2022-09-09T07:38:53;98705.78;;;19.79;100.00
9289;BME280;4683;50.864;12.086;2022-09-09T07:41:31;98706.41;;;19.86;100.00
9289;BME280;4683;50.864;12.086;2022-09-09T07:44:17;98719.38;;;19.94;100.00
9289;BME280;4683;50.864;12.086;2022-09-09T07:46:51;98709.38;;;20.12;100.00
9289;BME280;4683;50.864;12.086;2022-09-09T07:49:21;98718.06;;;20.24;100.00
9289;BME280;4683;50.864;12.086;2022-09-09T07:52:10;98728.41;;;20.37;100.00
9289;BME280;4683;50.864;12.086;2022-09-09T07:54:43;98729.41;;;20.53;100.00
9289;BME280;4683;50.864;12.086;2022-09-09T07:57:16;98725.56;;;20.22;100.00
9289;BME280;4683;50.864;12.086;2022-09-09T07:59:56;98729.91;;;20.28;100.00
9289;BME280;4683;50.864;12.086;2022-09-09T08:02:29;98726.16;;;20.29;100.00
9289;BME280;4683;50.864;12.086;2022-09-09T08:04:58;98728.84;;;20.29;100.00
9289;BME280;4683;50.864;12.086;2022-09-09T08:07:27;98719.56;;;20.37;100.00
9289;BME280;4683;50.864;12.086;2022-09-09T08:09:57;98729.50;;;20.41;100.00
9289;BME280;4683;50.864;12.086;2022-09-09T08:12:29;98728.03;;;20.28;100.00
9289;BME280;4683;50.864;12.086;2022-09-09T08:15:14;98734.63;;;20.21;100.00
9289;BME280;4683;50.864;12.086;2022-09-09T08:17:44;98721.38;;;20.31;100.00
9289;BME280;4683;50.864;12.086;2022-09-09T08:20:33;98729.66;;;20.30;100.00
9289;BME280;4683;50.864;12.086;2022-09-09T08:23:04;98731.13;;;20.42;100.00
9289;BME280;4683;50.864;12.086;2022-09-09T08:25:33;98738.25;;;20.54;100.00
9289;BME280;4683;50.864;12.086;2022-09-09T08:28:10;98732.69;;;20.38;100.00
9289;BME280;4683;50.864;12.086;2022-09-09T08:30:52;98740.63;;;20.28;100.00
9289;BME280;4683;50.864;12.086;2022-09-09T08:33:21;98733.22;;;20.35;100.00
9289;BME280;4683;50.864;12.086;2022-09-09T08:35:52;98745.19;;;20.49;100.00
9289;BME280;4683;50.864;12.086;2022-09-09T08:38:33;98746.66;;;20.62;100.00
9289;BME280;4683;50.864;12.086;2022-09-09T08:44:14;98756.59;;;20.67;100.00
9289;BME280;4683;50.864;12.086;2022-09-09T08:47:16;98751.13;;;20.57;100.00
9289;BME280;4683;50.864;12.086;2022-09-09T08:50:21;98744.84;;;20.73;100.00
9289;BME280;4683;50.864;12.086;2022-09-09T08:53:19;98757.81;;;20.81;100.00
9289;BME280;4683;50.864;12.086;2022-09-09T08:55:58;98747.44;;;20.63;100.00
9289;BME280;4683;50.864;12.086;2022-09-09T08:58:46;98757.47;;;20.72;100.00
9289;BME280;4683;50.864;12.086;2022-09-09T09:01:51;98766.47;;;20.93;100.00
9289;BME280;4683;50.864;12.086;2022-09-09T09:04:51;98766.47;;;20.93;100.00
9289;BME280;4683;50.864;12.086;2022-09-09T09:07:50;98761.69;;;20.95;100.00
9289;BME280;4683;50.864;12.086;2022-09-09T09:10:41;98763.66;;;21.10;100.00
9289;BME280;4683;50.864;12.086;2022-09-09T09:13:19;98760.88;;;20.95;100.00
9289;BME280;4683;50.864;12.086;2022-09-09T09:16:00;98758.00;;;21.07;100.00
9289;BME280;4683;50.864;12.086;2022-09-09T09:18:36;98763.69;;;21.47;100.00
9289;BME280;4683;50.864;12.086;2022-09-09T09:21:11;98777.50;;;21.29;100.00
9289;BME280;4683;50.864;12.086;2022-09-09T09:23:48;98780.94;;;21.24;100.00
9289;BME280;4683;50.864;12.086;2022-09-09T09:26:34;98781.59;;;21.05;100.00
9289;BME280;4683;50.864;12.086;2022-09-09T09:29:13;98788.47;;;21.22;100.00
9289;BME280;4683;50.864;12.086;2022-09-09T09:31:50;98779.75;;;21.42;100.00
9289;BME280;4683;50.864;12.086;2022-09-09T09:34:21;98789.97;;;21.40;100.00
9289;BME280;4683;50.864;12.086;2022-09-09T09:37:02;98796.50;;;21.55;100.00
9289;BME280;4683;50.864;12.086;2022-09-09T09:39:45;98795.78;;;21.74;100.00
9289;BME280;4683;50.864;12.086;2022-09-09T09:42:18;98799.44;;;22.00;100.00
9289;BME280;4683;50.864;12.086;2022-09-09T09:44:50;98792.06;;;22.28;100.00
9289;BME280;4683;50.864;12.086;2022-09-09T09:47:24;98795.66;;;22.01;100.00
9289;BME280;4683;50.864;12.086;2022-09-09T09:50:15;98808.16;;;22.23;100.00
9289;BME280;4683;50.864;12.086;2022-09-09T09:52:55;98810.88;;;22.28;100.00
9289;BME280;4683;50.864;12.086;2022-09-09T09:55:25;98808.72;;;22.30;100.00
9289;BME280;4683;50.864;12.086;2022-09-09T09:58:02;98809.84;;;22.44;100.00
9289;BME280;4683;50.864;12.086;2022-09-09T10:00:33;98804.47;;;22.44;100.00
9289;BME280;4683;50.864;12.086;2022-09-09T10:03:24;98822.56;;;22.74;100.00
9289;BME280;4683;50.864;12.086;2022-09-09T10:05:58;98821.69;;;22.48;100.00
9289;BME280;4683;50.864;12.086;2022-09-09T10:08:28;98812.53;;;22.44;100.00
9289;BME280;4683;50.864;12.086;2022-09-09T10:11:27;98820.22;;;22.20;100.00
9289;BME280;4683;50.864;12.086;2022-09-09T10:14:05;98816.19;;;22.13;100.00
9289;BME280;4683;50.864;12.086;2022-09-09T10:16:56;98812.34;;;22.03;100.00
9289;BME280;4683;50.864;12.086;2022-09-09T10:19:36;98808.81;;;22.56;100.00
9289;BME280;4683;50.864;12.086;2022-09-09T10:22:26;98812.59;;;22.60;100.00
9289;BME280;4683;50.864;12.086;2022-09-09T10:25:18;98809.66;;;22.71;100.00
9289;BME280;4683;50.864;12.086;2022-09-09T10:28:32;98816.97;;;22.96;100.00
9289;BME280;4683;50.864;12.086;2022-09-09T10:31:17;98805.09;;;22.82;100.00
9289;BME280;4683;50.864;12.086;2022-09-09T10:34:04;98799.22;;;23.36;100.00
9289;BME280;4683;50.864;12.086;2022-09-09T10:36:48;98801.06;;;23.82;100.00
9289;BME280;4683;50.864;12.086;2022-09-09T10:39:37;98758.78;;;23.77;100.00
9289;BME280;4683;50.864;12.086;2022-09-09T10:42:14;98817.53;;;23.65;100.00
9289;BME280;4683;50.864;12.086;2022-09-09T10:45:02;98816.44;;;23.20;100.00
9289;BME280;4683;50.864;12.086;2022-09-09T10:48:00;98823.44;;;23.11;100.00
9289;BME280;4683;50.864;12.086;2022-09-09T10:50:50;98828.31;;;23.65;100.00
9289;BME280;4683;50.864;12.086;2022-09-09T10:53:39;98815.91;;;23.33;100.00
9289;BME280;4683;50.864;12.086;2022-09-09T10:56:16;98820.50;;;23.33;100.00
9289;BME280;4683;50.864;12.086;2022-09-09T10:58:51;98818.88;;;23.32;100.00
9289;BME280;4683;50.864;12.086;2022-09-09T11:01:32;98822.34;;;22.96;100.00
9289;BME280;4683;50.864;12.086;2022-09-09T11:04:15;98820.16;;;22.78;100.00
9289;BME280;4683;50.864;12.086;2022-09-09T11:06:53;98824.44;;;22.74;100.00
9289;BME280;4683;50.864;12.086;2022-09-09T11:09:54;98813.22;;;23.02;100.00
9289;BME280;4683;50.864;12.086;2022-09-09T11:12:36;98810.28;;;23.35;100.00
9289;BME280;4683;50.864;12.086;2022-09-09T11:15:13;98808.91;;;23.73;100.00
9289;BME280;4683;50.864;12.086;2022-09-09T11:17:50;98805.66;;;23.71;100.00
9289;BME280;4683;50.864;12.086;2022-09-09T11:20:26;98803.00;;;23.45;100.00
9289;BME280;4683;50.864;12.086;2022-09-09T11:23:01;98796.53;;;23.31;99.76
9289;BME280;4683;50.864;12.086;2022-09-09T11:25:55;98789.50;;;23.50;100.00
9289;BME280;4683;50.864;12.086;2022-09-09T11:28:42;98786.56;;;23.11;100.00
9289;BME280;4683;50.864;12.086;2022-09-09T11:31:40;98784.94;;;23.25;99.05
9289;BME280;4683;50.864;12.086;2022-09-09T11:34:52;98777.13;;;23.65;99.85
9289;BME280;4683;50.864;12.086;2022-09-09T11:37:56;98772.78;;;23.79;100.00
9289;BME280;4683;50.864;12.086;2022-09-09T11:40:31;98774.66;;;23.78;100.00
9289;BME280;4683;50.864;12.086;2022-09-09T11:43:10;98770.16;;;23.23;100.00
9289;BME280;4683;50.864;12.086;2022-09-09T11:45:43;98772.31;;;23.16;100.00
9289;BME280;4683;50.864;12.086;2022-09-09T11:48:35;98766.94;;;22.95;100.00
9289;BME280;4683;50.864;12.086;2022-09-09T11:51:10;98770.13;;;22.82;100.00
9289;BME280;4683;50.864;12.086;2022-09-09T11:53:52;98765.84;;;23.12;100.00
9289;BME280;4683;50.864;12.086;2022-09-09T11:56:33;98761.22;;;23.58;100.00
9289;BME280;4683;50.864;12.086;2022-09-09T11:59:22;98766.91;;;23.46;98.07
9289;BME280;4683;50.864;12.086;2022-09-09T12:01:56;98756.91;;;23.57;99.07
9289;BME280;4683;50.864;12.086;2022-09-09T12:04:37;98763.13;;;23.58;98.97
9289;BME280;4683;50.864;12.086;2022-09-09T12:07:42;98753.97;;;23.59;97.00
9289;BME280;4683;50.864;12.086;2022-09-09T12:10:38;98758.75;;;23.82;97.93
9289;BME280;4683;50.864;12.086;2022-09-09T12:13:23;98757.72;;;23.47;96.21
9289;BME280;4683;50.864;12.086;2022-09-09T12:15:57;98750.25;;;23.03;97.54
9289;BME280;4683;50.864;12.086;2022-09-09T12:18:36;98740.53;;;23.28;98.95
9289;BME280;4683;50.864;12.086;2022-09-09T12:21:21;98732.44;;;23.48;95.77
9289;BME280;4683;50.864;12.086;2022-09-09T12:24:23;98734.28;;;23.73;96.08
9289;BME280;4683;50.864;12.086;2022-09-09T12:27:02;98732.09;;;23.86;94.44
9289;BME280;4683;50.864;12.086;2022-09-09T12:29:43;98723.50;;;23.63;93.80
9289;BME280;4683;50.864;12.086;2022-09-09T12:32:19;98720.00;;;23.73;96.30
9289;BME280;4683;50.864;12.086;2022-09-09T12:35:00;98710.53;;;23.86;94.62
9289;BME280;4683;50.864;12.086;2022-09-09T12:37:35;98704.34;;;23.85;96.13
9289;BME280;4683;50.864;12.086;2022-09-09T12:40:24;98707.63;;;23.67;92.47
9289;BME280;4683;50.864;12.086;2022-09-09T12:42:59;98698.38;;;23.88;90.90
9289;BME280;4683;50.864;12.086;2022-09-09T12:45:32;98695.78;;;24.22;89.18
9289;BME280;4683;50.864;12.086;2022-09-09T12:48:07;98694.44;;;24.20;89.90
9289;BME280;4683;50.864;12.086;2022-09-09T12:50:48;98690.47;;;24.07;88.27
9289;BME280;4683;50.864;12.086;2022-09-09T12:53:25;98699.03;;;24.19;85.93
9289;BME280;4683;50.864;12.086;2022-09-09T12:56:06;98701.00;;;24.03;85.91
9289;BME280;4683;50.864;12.086;2022-09-09T12:58:39;98697.28;;;23.94;86.05
9289;BME280;4683;50.864;12.086;2022-09-09T13:01:24;98697.78;;;24.01;88.30
9289;BME280;4683;50.864;12.086;2022-09-09T13:03:58;98700.41;;;24.12;87.12
9289;BME280;4683;50.864;12.086;2022-09-09T13:06:29;98701.75;;;24.14;82.73
9289;BME280;4683;50.864;12.086;2022-09-09T13:09:04;98705.88;;;23.96;82.61
9289;BME280;4683;50.864;12.086;2022-09-09T13:11:37;98692.97;;;23.98;81.00
9289;BME280;4683;50.864;12.086;2022-09-09T13:14:15;98694.56;;;23.99;81.69
9289;BME280;4683;50.864;12.086;2022-09-09T13:16:59;98697.16;;;24.15;80.64
9289;BME280;4683;50.864;12.086;2022-09-09T13:19:34;98704.56;;;23.94;80.69
9289;BME280;4683;50.864;12.086;2022-09-09T13:22:43;98708.84;;;24.00;80.03
9289;BME280;4683;50.864;12.086;2022-09-09T13:25:32;98702.63;;;24.04;80.89
9289;BME280;4683;50.864;12.086;2022-09-09T13:28:04;98703.97;;;24.02;79.06
9289;BME280;4683;50.864;12.086;2022-09-09T13:30:39;98698.09;;;23.95;78.73
9289;BME280;4683;50.864;12.086;2022-09-09T13:33:22;98700.56;;;23.86;79.57
9289;BME280;4683;50.864;12.086;2022-09-09T13:35:55;98695.19;;;23.81;81.74
9289;BME280;4683;50.864;12.086;2022-09-09T13:38:26;98696.47;;;23.99;83.58
9289;BME280;4683;50.864;12.086;2022-09-09T13:41:03;98694.13;;;23.62;79.35
9289;BME280;4683;50.864;12.086;2022-09-09T13:43:36;98700.88;;;23.69;82.99
9289;BME280;4683;50.864;12.086;2022-09-09T13:46:24;98688.84;;;23.36;80.96
9289;BME280;4683;50.864;12.086;2022-09-09T13:48:56;98699.31;;;23.53;84.48
9289;BME280;4683;50.864;12.086;2022-09-09T13:51:35;98701.44;;;23.71;85.34
9289;BME280;4683;50.864;12.086;2022-09-09T13:54:15;98701.16;;;23.63;84.46
9289;BME280;4683;50.864;12.086;2022-09-09T13:57:00;98701.19;;;23.42;87.20
9289;BME280;4683;50.864;12.086;2022-09-09T13:59:30;98697.22;;;23.35;89.50
9289;BME280;4683;50.864;12.086;2022-09-09T14:02:00;98712.28;;;23.15;91.07
9289;BME280;4683;50.864;12.086;2022-09-09T14:04:29;98706.41;;;23.08;93.28
9289;BME280;4683;50.864;12.086;2022-09-09T14:06:59;98703.97;;;23.07;94.58
9289;BME280;4683;50.864;12.086;2022-09-09T14:09:31;98705.59;;;22.97;96.29
9289;BME280;4683;50.864;12.086;2022-09-09T14:11:59;98699.38;;;22.87;97.07